Time;durP1;ratioP1;P1;durP2;ratioP2;P2;SDS_P1;SDS_P2;PMS_P1;PMS_P2;Temp;Humidity;BMP_temperature;BMP_pressure;BME280_temperature;BME280_humidity;BME280_pressure;Samples;Min_cycle;Max_cycle;Signal;HPM_P1;HPM_P2
2023/09/04 00:00:13;;;;;;;44.15;32.35;;;;;;;;;;5023283;28;20040;-63
2023/09/04 00:02:40;;;;;;;45.28;33.15;;;;;;;;;;5022745;28;20034;-61
2023/09/04 00:05:07;;;;;;;51.40;33.38;;;;;;;;;;5024592;28;20048;-62
2023/09/04 00:07:34;;;;;;;44.78;33.22;;;;;;;;;;5023489;28;20298;-64
2023/09/04 00:10:00;;;;;;;49.38;34.20;;;;;;;;;;5025692;28;20539;-63
2023/09/04 00:12:27;;;;;;;48.75;33.90;;;;;;;;;;5025788;28;20061;-62
2023/09/04 00:14:53;;;;;;;49.08;35.70;;;;;;;;;;5026125;28;20721;-63
2023/09/04 00:17:20;;;;;;;49.17;34.20;;;;;;;;;;5043875;28;20040;-62
2023/09/04 00:19:47;;;;;;;48.15;34.17;;;;;;;;;;5036134;28;20033;-62
2023/09/04 00:22:13;;;;;;;50.10;35.20;;;;;;;;;;5038384;28;20041;-62
2023/09/04 00:24:40;;;;;;;48.88;34.75;;;;;;;;;;5027227;28;20036;-64
2023/09/04 00:27:07;;;;;;;52.30;35.83;;;;;;;;;;5025778;28;20160;-63
2023/09/04 00:29:33;;;;;;;49.05;35.55;;;;;;;;;;5024697;28;20033;-63
2023/09/04 00:32:02;;;;;;;51.28;35.85;;;;;;;;;;5023276;28;20095;-63
2023/09/04 00:34:29;;;;;;;46.63;33.95;;;;;;;;;;5045905;28;20087;-64
2023/09/04 00:36:55;;;;;;;48.78;36.55;;;;;;;;;;5027767;28;20038;-64
2023/09/04 00:39:22;;;;;;;53.67;36.00;;;;;;;;;;5027319;28;20048;-64
2023/09/04 00:41:49;;;;;;;51.47;35.33;;;;;;;;;;5029851;28;20026;-63
2023/09/04 00:44:17;;;;;;;55.53;34.58;;;;;;;;;;5037468;28;20045;-62
2023/09/04 00:46:44;;;;;;;50.30;36.25;;;;;;;;;;5056761;28;20564;-62
2023/09/04 00:49:13;;;;;;;50.67;35.28;;;;;;;;;;5026952;28;20075;-62
2023/09/04 00:51:40;;;;;;;49.80;36.45;;;;;;;;;;5037374;28;20099;-63
2023/09/04 00:54:07;;;;;;;50.00;35.70;;;;;;;;;;5027968;28;20058;-64
2023/09/04 00:56:53;;;;;;;47.67;35.03;;;;;;;;;;4986297;28;20121;-64
2023/09/04 00:59:20;;;;;;;46.40;34.22;;;;;;;;;;4986850;28;20322;-63
2023/09/04 01:01:47;;;;;;;50.63;36.17;;;;;;;;;;4995846;23;20376;-63
2023/09/04 01:04:14;;;;;;;51.10;34.63;;;;;;;;;;4996638;28;20041;-62
2023/09/04 01:06:40;;;;;;;51.80;35.20;;;;;;;;;;4992779;28;20044;-63
2023/09/04 01:09:08;;;;;;;53.95;35.28;;;;;;;;;;4997357;28;20683;-62
2023/09/04 01:11:38;;;;;;;56.35;36.47;;;;;;;;;;4992807;28;20038;-61
2023/09/04 01:14:07;;;;;;;55.53;36.67;;;;;;;;;;4998062;28;20042;-63
2023/09/04 01:16:34;;;;;;;54.08;37.00;;;;;;;;;;5012434;28;20042;-64
2023/09/04 01:19:01;;;;;;;51.35;36.22;;;;;;;;;;4999703;28;20095;-63
2023/09/04 01:21:28;;;;;;;52.38;36.20;;;;;;;;;;5000047;28;20057;-62
2023/09/04 01:23:57;;;;;;;54.63;37.00;;;;;;;;;;5000632;28;20299;-62
2023/09/04 01:26:23;;;;;;;52.03;36.22;;;;;;;;;;4992970;28;20413;-61
2023/09/04 01:29:09;;;;;;;52.13;37.33;;;;;;;;;;4987177;28;20077;-61
2023/09/04 01:31:47;;;;;;;50.85;35.75;;;;;;;;;;4994191;28;20046;-62
2023/09/04 01:34:19;;;;;;;49.95;35.80;;;;;;;;;;4998221;28;20057;-63
2023/09/04 01:36:46;;;;;;;52.30;35.88;;;;;;;;;;4993894;28;20127;-63
2023/09/04 01:39:13;;;;;;;52.55;36.45;;;;;;;;;;4999569;28;20034;-62
2023/09/04 01:41:40;;;;;;;54.45;37.47;;;;;;;;;;4996825;28;20038;-63
2023/09/04 01:44:07;;;;;;;50.00;35.90;;;;;;;;;;4995566;28;20036;-63
2023/09/04 01:46:34;;;;;;;54.05;38.05;;;;;;;;;;4990750;28;20084;-64
2023/09/04 01:49:00;;;;;;;54.40;37.85;;;;;;;;;;4990441;28;20037;-62
2023/09/04 01:51:27;;;;;;;56.40;37.25;;;;;;;;;;4989931;28;20677;-62
2023/09/04 01:53:54;;;;;;;53.80;36.63;;;;;;;;;;4992669;28;20176;-61
2023/09/04 01:56:20;;;;;;;53.00;37.63;;;;;;;;;;4989215;28;20116;-62
2023/09/04 01:58:47;;;;;;;49.20;35.55;;;;;;;;;;4987313;28;20072;-61
2023/09/04 02:01:14;;;;;;;57.13;38.15;;;;;;;;;;4988340;28;20038;-62
2023/09/04 02:03:41;;;;;;;52.47;35.78;;;;;;;;;;4989003;28;20045;-59
2023/09/04 02:06:07;;;;;;;55.67;37.72;;;;;;;;;;4988004;28;20042;-59
2023/09/04 02:08:34;;;;;;;53.78;38.97;;;;;;;;;;4989241;28;20403;-60
2023/09/04 02:11:01;;;;;;;61.25;39.22;;;;;;;;;;4990077;28;20049;-62
2023/09/04 02:13:27;;;;;;;59.72;38.60;;;;;;;;;;4991238;28;20129;-61
2023/09/04 02:15:54;;;;;;;53.40;35.63;;;;;;;;;;4992616;28;20536;-59
2023/09/04 02:18:22;;;;;;;52.47;36.25;;;;;;;;;;4995106;28;20060;-63
2023/09/04 02:20:49;;;;;;;51.65;37.72;;;;;;;;;;4995346;28;20431;-64
2023/09/04 02:23:15;;;;;;;65.22;37.58;;;;;;;;;;4995475;28;20080;-63
2023/09/04 02:25:42;;;;;;;56.67;37.45;;;;;;;;;;4993802;28;20116;-63
2023/09/04 02:28:09;;;;;;;60.35;38.67;;;;;;;;;;4990887;28;20077;-62
2023/09/04 02:30:38;;;;;;;55.78;36.78;;;;;;;;;;4989589;28;20685;-64
2023/09/04 02:33:04;;;;;;;57.75;38.03;;;;;;;;;;4988797;28;20056;-62
2023/09/04 02:35:31;;;;;;;59.00;39.47;;;;;;;;;;4978276;28;20033;-63
2023/09/04 02:37:57;;;;;;;59.38;39.53;;;;;;;;;;4993740;28;20526;-62
2023/09/04 02:40:24;;;;;;;57.10;39.78;;;;;;;;;;4989384;28;20053;-63
2023/09/04 02:42:51;;;;;;;59.17;40.45;;;;;;;;;;4988573;28;20457;-63
2023/09/04 02:45:17;;;;;;;57.78;38.78;;;;;;;;;;4993884;28;20600;-63
2023/09/04 02:47:44;;;;;;;58.25;38.53;;;;;;;;;;4993453;28;20038;-63
2023/09/04 02:50:11;;;;;;;61.92;39.92;;;;;;;;;;4995312;28;20254;-62
2023/09/04 02:52:38;;;;;;;58.97;39.97;;;;;;;;;;4984901;28;20095;-65
2023/09/04 02:55:05;;;;;;;58.55;39.97;;;;;;;;;;4991588;28;20490;-63
2023/09/04 02:57:32;;;;;;;57.78;39.55;;;;;;;;;;5005360;28;20521;-64
2023/09/04 03:00:05;;;;;;;58.72;39.08;;;;;;;;;;4990814;28;20546;-63
2023/09/04 03:02:31;;;;;;;;;;;;;;;;;;4987974;28;20137;-63
2023/09/04 03:04:58;;;;;;;62.33;40.15;;;;;;;;;;4987968;28;20463;-62
2023/09/04 03:07:28;;;;;;;64.25;41.03;;;;;;;;;;4990049;28;20060;-61
2023/09/04 03:09:59;;;;;;;61.50;41.92;;;;;;;;;;4989066;28;20072;-61
2023/09/04 03:12:26;;;;;;;63.45;42.70;;;;;;;;;;4992361;28;20113;-64
2023/09/04 03:14:59;;;;;;;60.35;41.45;;;;;;;;;;4989451;28;20052;-63
2023/09/04 03:17:25;;;;;;;;;;;;;;;;;;4992604;28;20061;-66
2023/09/04 03:19:56;;;;;;;64.82;41.03;;;;;;;;;;4991309;28;19922;-64
2023/09/04 03:22:23;;;;;;;64.45;43.25;;;;;;;;;;4989580;28;20084;-64
2023/09/04 03:24:49;;;;;;;65.95;42.33;;;;;;;;;;4989529;28;21456;-63
2023/09/04 03:27:16;;;;;;;65.15;41.92;;;;;;;;;;4990541;28;20317;-62
2023/09/04 03:29:43;;;;;;;62.33;42.30;;;;;;;;;;4987708;28;20046;-62
2023/09/04 03:32:10;;;;;;;62.58;43.15;;;;;;;;;;4988125;28;20057;-63
2023/09/04 03:34:40;;;;;;;63.42;43.03;;;;;;;;;;4993023;28;20144;-64
2023/09/04 03:37:06;;;;;;;59.75;41.97;;;;;;;;;;4994124;28;20062;-62
2023/09/04 03:39:36;;;;;;;65.30;44.33;;;;;;;;;;4995062;28;20139;-64
2023/09/04 03:42:03;;;;;;;66.53;42.47;;;;;;;;;;4999580;28;20133;-64
2023/09/04 03:44:30;;;;;;;64.00;42.85;;;;;;;;;;4999649;28;20041;-63
2023/09/04 03:46:56;;;;;;;60.70;42.67;;;;;;;;;;4995538;28;20136;-69
2023/09/04 03:49:23;;;;;;;64.80;41.92;;;;;;;;;;4996653;28;20033;-69
2023/09/04 03:51:50;;;;;;;61.92;43.15;;;;;;;;;;4998130;28;20046;-62
2023/09/04 03:54:16;;;;;;;63.70;43.08;;;;;;;;;;4998257;28;20152;-64
2023/09/04 03:56:43;;;;;;;63.33;44.10;;;;;;;;;;4997495;28;20157;-64
2023/09/04 03:59:09;;;;;;;67.88;45.08;;;;;;;;;;4998268;28;20544;-63
2023/09/04 04:01:36;;;;;;;66.00;44.28;;;;;;;;;;4981512;28;20480;-60
2023/09/04 04:04:03;;;;;;;64.85;42.55;;;;;;;;;;5002483;28;20053;-64
2023/09/04 04:06:29;;;;;;;68.72;44.75;;;;;;;;;;4997414;28;20038;-62
2023/09/04 04:08:56;;;;;;;66.45;44.40;;;;;;;;;;4996352;28;20065;-62
2023/09/04 04:11:23;;;;;;;71.90;44.72;;;;;;;;;;4996083;28;20145;-63
2023/09/04 04:13:50;;;;;;;61.05;44.65;;;;;;;;;;4997259;28;20045;-63
2023/09/04 04:16:17;;;;;;;70.63;44.90;;;;;;;;;;4997123;28;20459;-62
2023/09/04 04:18:43;;;;;;;70.47;44.80;;;;;;;;;;4994134;28;20782;-61
2023/09/04 04:21:10;;;;;;;63.42;43.15;;;;;;;;;;4995370;28;20073;-62
2023/09/04 04:23:36;;;;;;;71.15;44.17;;;;;;;;;;4992794;28;20733;-61
2023/09/04 04:26:03;;;;;;;65.38;42.83;;;;;;;;;;4992631;28;20092;-62
2023/09/04 04:28:31;;;;;;;66.90;42.95;;;;;;;;;;4993593;28;20402;-62
2023/09/04 04:31:00;;;;;;;63.60;42.22;;;;;;;;;;5006098;28;20088;-60
2023/09/04 04:33:27;;;;;;;64.70;42.33;;;;;;;;;;4995716;28;20141;-63
2023/09/04 04:35:54;;;;;;;63.72;41.65;;;;;;;;;;4995763;28;20073;-62
2023/09/04 04:38:20;;;;;;;67.13;42.28;;;;;;;;;;4997609;28;20045;-62
2023/09/04 04:40:47;;;;;;;70.47;43.60;;;;;;;;;;4995879;28;20056;-61
2023/09/04 04:43:14;;;;;;;67.63;42.58;;;;;;;;;;4993960;28;20045;-62
2023/09/04 04:45:40;;;;;;;66.95;43.22;;;;;;;;;;4993703;28;20026;-62
2023/09/04 04:48:07;;;;;;;63.92;43.97;;;;;;;;;;4994083;28;20046;-63
2023/09/04 04:50:34;;;;;;;63.47;43.40;;;;;;;;;;4992744;28;20170;-62
2023/09/04 04:53:01;;;;;;;61.90;42.40;;;;;;;;;;5001452;28;20789;-61
2023/09/04 04:55:28;;;;;;;60.08;41.83;;;;;;;;;;4995548;28;20038;-64
2023/09/04 04:57:54;;;;;;;66.55;43.53;;;;;;;;;;4992865;28;20044;-65
2023/09/04 05:00:21;;;;;;;66.38;41.83;;;;;;;;;;4995980;28;20052;-63
2023/09/04 05:02:47;;;;;;;63.17;40.55;;;;;;;;;;4995102;28;20387;-62
2023/09/04 05:05:15;;;;;;;61.05;42.17;;;;;;;;;;4993710;28;20046;-60
2023/09/04 05:07:42;;;;;;;61.65;41.03;;;;;;;;;;4996069;28;20042;-65
2023/09/04 05:10:09;;;;;;;61.30;41.50;;;;;;;;;;4994592;28;20037;-62
2023/09/04 05:12:36;;;;;;;62.10;41.30;;;;;;;;;;4992353;28;20406;-62
2023/09/04 05:15:03;;;;;;;60.67;40.05;;;;;;;;;;4991060;28;20409;-60
2023/09/04 05:17:29;;;;;;;64.55;40.15;;;;;;;;;;4991840;28;20096;-62
2023/09/04 05:19:56;;;;;;;57.88;40.30;;;;;;;;;;4992604;28;21372;-62
2023/09/04 05:22:23;;;;;;;64.72;41.45;;;;;;;;;;4993497;28;21340;-60
2023/09/04 05:24:49;;;;;;;64.32;43.35;;;;;;;;;;4992248;28;20042;-61
2023/09/04 05:27:16;;;;;;;71.00;43.55;;;;;;;;;;4993011;28;20139;-61
2023/09/04 05:29:42;;;;;;;69.80;44.42;;;;;;;;;;4990754;28;20117;-62
2023/09/04 05:32:09;;;;;;;66.57;43.28;;;;;;;;;;4991590;28;20096;-61
2023/09/04 05:34:39;;;;;;;66.50;44.40;;;;;;;;;;4991460;28;20526;-60
2023/09/04 05:37:07;;;;;;;64.47;44.65;;;;;;;;;;4991743;28;20069;-59
2023/09/04 05:39:33;;;;;;;67.68;46.55;;;;;;;;;;4992017;28;20057;-62
2023/09/04 05:42:00;;;;;;;70.28;48.85;;;;;;;;;;4993674;28;20071;-62
2023/09/04 05:44:27;;;;;;;81.95;51.10;;;;;;;;;;4993666;28;20509;-60
2023/09/04 05:46:53;;;;;;;77.68;48.53;;;;;;;;;;4993835;28;20048;-60
2023/09/04 05:49:20;;;;;;;78.13;50.97;;;;;;;;;;4997621;28;20061;-62
2023/09/04 05:51:47;;;;;;;76.45;52.13;;;;;;;;;;4993831;28;20039;-61
2023/09/04 05:54:13;;;;;;;83.00;52.25;;;;;;;;;;4995593;28;20438;-60
2023/09/04 05:56:40;;;;;;;79.45;51.95;;;;;;;;;;4993936;28;20064;-58
2023/09/04 05:59:06;;;;;;;91.90;60.38;;;;;;;;;;4993878;28;20053;-59
2023/09/04 06:01:33;;;;;;;85.60;57.45;;;;;;;;;;4991754;28;20034;-61
2023/09/04 06:04:00;;;;;;;91.88;57.70;;;;;;;;;;4992007;28;20045;-61
2023/09/04 06:06:26;;;;;;;92.10;61.03;;;;;;;;;;4993054;28;20482;-61
2023/09/04 06:08:53;;;;;;;101.07;66.18;;;;;;;;;;4996611;28;20052;-62
2023/09/04 06:11:20;;;;;;;96.75;65.05;;;;;;;;;;4995073;28;20052;-61
2023/09/04 06:13:47;;;;;;;103.13;68.10;;;;;;;;;;4993550;28;20056;-62
2023/09/04 06:16:14;;;;;;;97.57;66.13;;;;;;;;;;4990953;28;20487;-61
2023/09/04 06:18:41;;;;;;;105.90;67.65;;;;;;;;;;4991929;28;21442;-62
2023/09/04 06:21:07;;;;;;;108.38;71.70;;;;;;;;;;4994602;28;20289;-62
2023/09/04 06:23:34;;;;;;;105.72;67.72;;;;;;;;;;4995152;28;20184;-64
2023/09/04 06:26:02;;;;;;;105.85;68.68;;;;;;;;;;4998464;28;20069;-62
2023/09/04 06:28:28;;;;;;;108.22;69.43;;;;;;;;;;4992021;28;20094;-62
2023/09/04 06:30:58;;;;;;;107.70;70.18;;;;;;;;;;4991005;28;20048;-61
2023/09/04 06:33:25;;;;;;;105.60;69.88;;;;;;;;;;4991330;28;20060;-61
2023/09/04 06:35:52;;;;;;;99.40;66.82;;;;;;;;;;5000902;28;20052;-62
2023/09/04 06:38:19;;;;;;;106.30;70.05;;;;;;;;;;4989239;28;20045;-62
2023/09/04 06:40:45;;;;;;;107.40;68.28;;;;;;;;;;4998451;28;21939;-63
2023/09/04 06:43:12;;;;;;;103.30;68.50;;;;;;;;;;4995665;28;20034;-62
2023/09/04 06:45:39;;;;;;;104.55;67.78;;;;;;;;;;4990223;28;20041;-61
2023/09/04 06:48:06;;;;;;;103.85;68.07;;;;;;;;;;4991788;28;20069;-62
2023/09/04 06:50:32;;;;;;;104.10;67.80;;;;;;;;;;4991314;28;20645;-62
2023/09/04 06:52:59;;;;;;;104.18;65.88;;;;;;;;;;4990073;28;20058;-63
2023/09/04 06:55:26;;;;;;;95.78;63.97;;;;;;;;;;4993842;28;20048;-62
2023/09/04 06:57:52;;;;;;;100.57;64.93;;;;;;;;;;4995812;28;20058;-63
2023/09/04 07:00:19;;;;;;;103.82;63.15;;;;;;;;;;4994693;28;20040;-59
2023/09/04 07:02:46;;;;;;;98.53;63.40;;;;;;;;;;4991981;28;20601;-60
2023/09/04 07:05:13;;;;;;;97.10;61.67;;;;;;;;;;4989308;28;20524;-60
2023/09/04 07:07:40;;;;;;;100.25;64.75;;;;;;;;;;4989888;28;20069;-60
2023/09/04 07:10:06;;;;;;;100.65;64.10;;;;;;;;;;4995474;28;20033;-61
2023/09/04 07:12:36;;;;;;;100.03;65.35;;;;;;;;;;4992718;28;20405;-62
2023/09/04 07:15:03;;;;;;;101.82;64.57;;;;;;;;;;4995260;28;20046;-62
2023/09/04 07:17:30;;;;;;;103.03;63.53;;;;;;;;;;4999418;28;20073;-60
2023/09/04 07:19:56;;;;;;;102.72;63.88;;;;;;;;;;4997972;28;20041;-63
2023/09/04 07:22:24;;;;;;;97.20;64.25;;;;;;;;;;4993858;28;20049;-62
2023/09/04 07:24:51;;;;;;;97.75;62.20;;;;;;;;;;4984892;28;20041;-62
2023/09/04 07:27:18;;;;;;;104.22;63.13;;;;;;;;;;5015845;28;20646;-59
2023/09/04 07:29:44;;;;;;;98.82;62.88;;;;;;;;;;5001035;28;20042;-61
2023/09/04 07:32:31;;;;;;;98.30;64.60;;;;;;;;;;4995169;28;20121;-61
2023/09/04 07:34:58;;;;;;;98.25;64.57;;;;;;;;;;4986542;28;20140;-62
2023/09/04 07:37:27;;;;;;;99.85;63.55;;;;;;;;;;4998912;28;21340;-64
2023/09/04 07:39:56;;;;;;;101.30;64.82;;;;;;;;;;4999687;28;20346;-62
2023/09/04 07:42:23;;;;;;;102.00;62.85;;;;;;;;;;5000855;28;20038;-61
2023/09/04 07:44:49;;;;;;;98.35;62.45;;;;;;;;;;4991496;28;20158;-63
2023/09/04 07:47:16;;;;;;;93.35;61.97;;;;;;;;;;4990736;28;20916;-62
2023/09/04 07:49:43;;;;;;;99.75;62.35;;;;;;;;;;4989175;28;20041;-62
2023/09/04 07:52:10;;;;;;;99.85;63.33;;;;;;;;;;4975324;28;20599;-62
2023/09/04 07:54:36;;;;;;;98.90;62.05;;;;;;;;;;4987274;28;20053;-61
2023/09/04 07:57:04;;;;;;;102.85;63.40;;;;;;;;;;4988477;28;20038;-64
2023/09/04 07:59:31;;;;;;;99.53;62.13;;;;;;;;;;4988084;28;20242;-63
2023/09/04 08:01:57;;;;;;;100.53;62.90;;;;;;;;;;4982979;28;20566;-63
2023/09/04 08:04:24;;;;;;;97.45;62.17;;;;;;;;;;4977735;28;20398;-64
2023/09/04 08:06:51;;;;;;;103.50;63.33;;;;;;;;;;4986377;28;20034;-61
2023/09/04 08:09:17;;;;;;;94.45;62.40;;;;;;;;;;4989151;28;20862;-64
2023/09/04 08:11:44;;;;;;;94.63;61.92;;;;;;;;;;4992965;28;20143;-63
2023/09/04 08:14:10;;;;;;;102.43;64.75;;;;;;;;;;4994305;28;20076;-61
2023/09/04 08:16:37;;;;;;;100.70;63.17;;;;;;;;;;4992861;28;20368;-61
2023/09/04 08:19:04;;;;;;;98.00;62.28;;;;;;;;;;4977846;28;20034;-63
2023/09/04 08:21:30;;;;;;;97.80;63.50;;;;;;;;;;5007558;28;20548;-62
2023/09/04 08:23:57;;;;;;;97.80;63.63;;;;;;;;;;4991587;28;20084;-62
2023/09/04 08:26:24;;;;;;;97.85;63.92;;;;;;;;;;4992831;28;20139;-62
2023/09/04 08:28:50;;;;;;;104.93;66.43;;;;;;;;;;4992298;28;20037;-61
2023/09/04 08:31:17;;;;;;;101.80;65.57;;;;;;;;;;4991350;28;20087;-61
2023/09/04 08:33:43;;;;;;;102.10;65.45;;;;;;;;;;4991389;28;20065;-62
2023/09/04 08:36:10;;;;;;;107.75;67.07;;;;;;;;;;4993240;28;20140;-63
2023/09/04 08:38:37;;;;;;;106.95;68.47;;;;;;;;;;4992797;28;20672;-63
2023/09/04 08:41:08;;;;;;;106.85;69.28;;;;;;;;;;4991523;28;20326;-63
2023/09/04 08:43:37;;;;;;;103.72;68.10;;;;;;;;;;5006884;28;20042;-62
2023/09/04 08:46:06;;;;;;;109.22;68.57;;;;;;;;;;5006441;28;20725;-62
2023/09/04 08:48:35;;;;;;;110.28;69.82;;;;;;;;;;4989831;28;20157;-61
2023/09/04 08:51:02;;;;;;;108.75;69.60;;;;;;;;;;4989475;28;20076;-64
2023/09/04 08:53:29;;;;;;;109.18;70.25;;;;;;;;;;4990422;28;20053;-59
2023/09/04 08:55:56;;;;;;;114.90;70.97;;;;;;;;;;4991987;28;20042;-62
2023/09/04 08:58:22;;;;;;;110.97;71.53;;;;;;;;;;4991252;28;20030;-61
2023/09/04 09:00:50;;;;;;;111.88;71.45;;;;;;;;;;4992131;28;20434;-60
2023/09/04 09:03:17;;;;;;;109.95;71.70;;;;;;;;;;4992305;28;20057;-61
2023/09/04 09:05:47;;;;;;;108.07;69.68;;;;;;;;;;4992128;28;20052;-61
2023/09/04 09:08:13;;;;;;;109.07;70.43;;;;;;;;;;4991205;28;20065;-62
2023/09/04 09:10:41;;;;;;;107.35;69.85;;;;;;;;;;4991183;28;20034;-63
2023/09/04 09:13:10;;;;;;;112.25;70.40;;;;;;;;;;4992372;28;20526;-60
2023/09/04 09:15:37;;;;;;;112.00;72.45;;;;;;;;;;4989758;28;20042;-61
2023/09/04 09:18:04;;;;;;;118.25;72.07;;;;;;;;;;4992024;28;20156;-61
2023/09/04 09:20:34;;;;;;;120.28;73.95;;;;;;;;;;4990896;28;20459;-61
2023/09/04 09:23:01;;;;;;;109.88;71.97;;;;;;;;;;4991533;28;20148;-62
2023/09/04 09:25:28;;;;;;;113.38;71.50;;;;;;;;;;4990720;28;20045;-61
2023/09/04 09:27:59;;;;;;;112.45;71.45;;;;;;;;;;4991442;28;20514;-62
2023/09/04 09:30:29;;;;;;;114.78;72.55;;;;;;;;;;4990430;28;20046;-61
2023/09/04 09:32:57;;;;;;;112.00;73.57;;;;;;;;;;4989937;28;20308;-61
2023/09/04 09:35:24;;;;;;;120.97;76.65;;;;;;;;;;4991511;28;20455;-61
2023/09/04 09:37:54;;;;;;;114.03;73.28;;;;;;;;;;4989119;28;20038;-61
2023/09/04 09:40:21;;;;;;;119.75;74.88;;;;;;;;;;4992621;28;20042;-61
2023/09/04 09:42:48;;;;;;;115.07;74.30;;;;;;;;;;4991165;28;20046;-63
2023/09/04 09:45:15;;;;;;;114.95;71.82;;;;;;;;;;4990723;28;20449;-62
2023/09/04 09:47:41;;;;;;;121.47;72.85;;;;;;;;;;4991229;28;20050;-61
2023/09/04 09:50:08;;;;;;;116.15;74.13;;;;;;;;;;4991934;28;20136;-62
2023/09/04 09:52:35;;;;;;;115.65;73.07;;;;;;;;;;4990818;28;20173;-60
2023/09/04 09:55:01;;;;;;;113.65;73.28;;;;;;;;;;4991458;28;20088;-62
2023/09/04 09:57:30;;;;;;;115.82;74.68;;;;;;;;;;4989864;28;20671;-61
2023/09/04 09:59:57;;;;;;;118.05;76.00;;;;;;;;;;4991167;28;20034;-62
2023/09/04 10:02:26;;;;;;;115.95;72.95;;;;;;;;;;4991389;28;20442;-59
2023/09/04 10:04:53;;;;;;;115.28;73.47;;;;;;;;;;4993117;28;20129;-62
2023/09/04 10:07:38;;;;;;;116.57;73.03;;;;;;;;;;4991851;28;20034;-63
2023/09/04 10:10:06;;;;;;;114.88;74.50;;;;;;;;;;4990971;28;20034;-62
2023/09/04 10:12:45;;;;;;;113.32;73.25;;;;;;;;;;4991819;28;20046;-62
2023/09/04 10:15:14;;;;;;;122.07;78.18;;;;;;;;;;4992530;28;22029;-61
2023/09/04 10:17:58;;;;;;;116.00;74.72;;;;;;;;;;4991894;28;20172;-61
2023/09/04 10:20:26;;;;;;;126.28;79.22;;;;;;;;;;4969894;28;20857;-61
2023/09/04 10:23:00;;;;;;;118.15;77.72;;;;;;;;;;4990454;28;20073;-61
2023/09/04 10:25:50;;;;;;;118.13;75.47;;;;;;;;;;4989102;28;20106;-61
2023/09/04 10:28:43;;;;;;;121.75;78.95;;;;;;;;;;4974053;28;20045;-59
2023/09/04 10:31:10;;;;;;;118.07;75.47;;;;;;;;;;4957702;28;21511;-61
2023/09/04 10:33:38;;;;;;;125.95;79.25;;;;;;;;;;4991652;28;20046;-59
2023/09/04 10:36:05;;;;;;;125.55;80.07;;;;;;;;;;4980379;28;20045;-60
2023/09/04 10:38:32;;;;;;;124.07;79.88;;;;;;;;;;4990630;28;20046;-61
2023/09/04 10:40:59;;;;;;;128.48;81.63;;;;;;;;;;4990492;28;20046;-60
2023/09/04 10:43:45;;;;;;;129.15;83.13;;;;;;;;;;4984920;28;20041;-65
2023/09/04 10:46:12;;;;;;;128.50;82.82;;;;;;;;;;4994482;28;20550;-60
2023/09/04 10:48:43;;;;;;;137.25;84.30;;;;;;;;;;4989401;28;20081;-59
2023/09/04 10:51:28;;;;;;;139.02;86.20;;;;;;;;;;4992528;28;20072;-61
2023/09/04 10:53:55;;;;;;;139.73;84.85;;;;;;;;;;4992844;28;20060;-61
2023/09/04 10:56:22;;;;;;;142.57;88.95;;;;;;;;;;5006737;28;20060;-62
2023/09/04 10:59:02;;;;;;;149.95;91.93;;;;;;;;;;4994166;28;20208;-60
2023/09/04 11:01:33;;;;;;;168.60;101.38;;;;;;;;;;4997922;28;20480;-60
2023/09/04 11:04:04;;;;;;;170.55;102.68;;;;;;;;;;4993121;28;20050;-60
2023/09/04 11:06:34;;;;;;;168.48;101.88;;;;;;;;;;5006736;28;20050;-59
2023/09/04 11:09:02;;;;;;;172.57;105.55;;;;;;;;;;4995017;28;20160;-62
2023/09/04 11:11:28;;;;;;;182.38;108.72;;;;;;;;;;4992747;28;20057;-60
2023/09/04 11:14:11;;;;;;;188.02;112.60;;;;;;;;;;5009372;28;20060;-61
2023/09/04 11:16:38;;;;;;;196.32;113.43;;;;;;;;;;5000356;28;20048;-61
2023/09/04 11:19:06;;;;;;;191.98;114.63;;;;;;;;;;4994817;28;20039;-62
2023/09/04 11:21:36;;;;;;;205.55;121.93;;;;;;;;;;4989384;28;20662;-62
2023/09/04 11:24:04;;;;;;;196.57;118.63;;;;;;;;;;4994012;28;20116;-60
2023/09/04 11:26:31;;;;;;;198.18;119.40;;;;;;;;;;4994354;28;20061;-62
2023/09/04 11:29:01;;;;;;;201.90;119.38;;;;;;;;;;5011348;28;20471;-58
2023/09/04 11:31:29;;;;;;;197.23;118.88;;;;;;;;;;5003358;28;20101;-65
2023/09/04 11:33:56;;;;;;;201.70;121.13;;;;;;;;;;5007756;28;20132;-62
2023/09/04 11:36:23;;;;;;;193.07;118.28;;;;;;;;;;5003542;28;20049;-63
2023/09/04 11:39:12;;;;;;;198.02;117.85;;;;;;;;;;5011176;28;20042;-62
2023/09/04 11:41:39;;;;;;;194.23;119.60;;;;;;;;;;5008274;28;20038;-63
2023/09/04 11:44:08;;;;;;;201.82;122.60;;;;;;;;;;4991537;28;20038;-61
2023/09/04 11:46:35;;;;;;;200.20;120.60;;;;;;;;;;4990646;28;20517;-62
2023/09/04 11:49:03;;;;;;;189.68;117.68;;;;;;;;;;4993758;28;20046;-64
2023/09/04 11:51:31;;;;;;;186.77;115.82;;;;;;;;;;5006536;28;20046;-64
2023/09/04 11:53:57;;;;;;;193.43;120.45;;;;;;;;;;5007764;28;20053;-63
2023/09/04 11:56:24;;;;;;;209.07;123.78;;;;;;;;;;4991765;28;20045;-65
2023/09/04 11:58:53;;;;;;;213.88;130.15;;;;;;;;;;4993062;28;20033;-65
2023/09/04 12:01:20;;;;;;;206.27;127.30;;;;;;;;;;4991506;28;20042;-64
2023/09/04 12:03:47;;;;;;;211.75;127.22;;;;;;;;;;4992230;28;20383;-64
2023/09/04 12:06:15;;;;;;;216.02;130.23;;;;;;;;;;4991243;28;20138;-65
2023/09/04 12:08:42;;;;;;;214.75;128.27;;;;;;;;;;4991850;28;20104;-63
2023/09/04 12:11:08;;;;;;;221.30;133.63;;;;;;;;;;4991890;28;20037;-63
2023/09/04 12:13:36;;;;;;;213.73;128.82;;;;;;;;;;4990780;28;20107;-64
2023/09/04 12:16:09;;;;;;;211.57;126.47;;;;;;;;;;4993670;28;20452;-66
2023/09/04 12:18:35;;;;;;;;;;;;;;;;;;4994072;28;20653;-64
2023/09/04 12:21:06;;;;;;;202.85;120.00;;;;;;;;;;4993781;28;19921;-64
2023/09/04 12:23:54;;;;;;;204.52;124.43;;;;;;;;;;4988954;28;20049;-64
2023/09/04 12:26:21;;;;;;;207.68;126.93;;;;;;;;;;4991116;28;20526;-65
2023/09/04 12:28:47;;;;;;;203.70;121.78;;;;;;;;;;4990238;28;20057;-63
2023/09/04 12:31:20;;;;;;;192.68;120.85;;;;;;;;;;4988663;28;20042;-63
2023/09/04 12:33:47;;;;;;;;;;;;;;;;;;4992045;28;21389;-65
2023/09/04 12:36:20;;;;;;;211.43;129.90;;;;;;;;;;4981551;28;20235;-64
2023/09/04 12:38:47;;;;;;;218.68;130.77;;;;;;;;;;4987521;28;20444;-64
2023/09/04 12:41:14;;;;;;;219.50;129.20;;;;;;;;;;4990214;28;20065;-65
2023/09/04 12:43:40;;;;;;;222.10;129.10;;;;;;;;;;4989395;28;20193;-64
2023/09/04 12:46:07;;;;;;;223.52;131.13;;;;;;;;;;4988936;28;20046;-64
2023/09/04 12:48:35;;;;;;;215.23;132.10;;;;;;;;;;4985176;28;20088;-65
2023/09/04 12:51:02;;;;;;;213.13;127.10;;;;;;;;;;4987926;28;20494;-65
2023/09/04 12:53:29;;;;;;;214.98;129.13;;;;;;;;;;4989154;28;20243;-65
2023/09/04 12:55:55;;;;;;;224.70;134.30;;;;;;;;;;4988392;28;20069;-64
2023/09/04 12:58:22;;;;;;;234.18;135.27;;;;;;;;;;4988253;28;20256;-65
2023/09/04 13:00:49;;;;;;;225.55;132.50;;;;;;;;;;4971039;28;20054;-65
2023/09/04 13:03:15;;;;;;;221.75;132.90;;;;;;;;;;4985452;28;20404;-63
2023/09/04 13:05:42;;;;;;;230.07;137.43;;;;;;;;;;4989561;28;20093;-62
2023/09/04 13:08:10;;;;;;;231.20;131.93;;;;;;;;;;4991394;28;21069;-64
2023/09/04 13:10:38;;;;;;;225.98;134.82;;;;;;;;;;4986011;28;20503;-64
2023/09/04 13:13:04;;;;;;;203.65;125.90;;;;;;;;;;5004070;28;20684;-65
2023/09/04 13:15:31;;;;;;;200.82;122.78;;;;;;;;;;4989107;28;20442;-64
2023/09/04 13:17:58;;;;;;;189.23;115.28;;;;;;;;;;4989240;28;20399;-64
2023/09/04 13:20:24;;;;;;;176.20;109.97;;;;;;;;;;4989538;28;20251;-63
2023/09/04 13:22:51;;;;;;;166.93;103.93;;;;;;;;;;4990104;28;20088;-64
2023/09/04 13:25:18;;;;;;;165.23;102.13;;;;;;;;;;5006211;28;20045;-67
2023/09/04 13:27:44;;;;;;;169.52;103.38;;;;;;;;;;4990018;28;20152;-64
2023/09/04 13:30:11;;;;;;;157.77;96.35;;;;;;;;;;4991233;28;20046;-63
2023/09/04 13:32:38;;;;;;;164.80;97.40;;;;;;;;;;5004255;28;20380;-66
2023/09/04 13:35:07;;;;;;;159.05;93.22;;;;;;;;;;4990239;28;20088;-64
2023/09/04 13:37:34;;;;;;;152.65;93.60;;;;;;;;;;4990072;28;20041;-63
2023/09/04 13:40:03;;;;;;;155.32;92.82;;;;;;;;;;4991111;28;20049;-64
2023/09/04 13:42:30;;;;;;;154.98;91.53;;;;;;;;;;4981940;28;20048;-64
2023/09/04 13:44:57;;;;;;;157.55;94.30;;;;;;;;;;4992019;28;20168;-66
2023/09/04 13:47:25;;;;;;;150.02;88.95;;;;;;;;;;4990559;28;20190;-65
2023/09/04 13:49:53;;;;;;;148.23;87.95;;;;;;;;;;4991322;28;20791;-63
2023/09/04 13:52:20;;;;;;;147.60;89.57;;;;;;;;;;4990697;28;20522;-64
2023/09/04 13:54:47;;;;;;;143.00;87.85;;;;;;;;;;4989133;28;20188;-64
2023/09/04 13:57:13;;;;;;;146.65;85.68;;;;;;;;;;4991476;28;20041;-64
2023/09/04 13:59:40;;;;;;;141.30;83.60;;;;;;;;;;4991042;28;20783;-64
2023/09/04 14:02:07;;;;;;;144.23;86.43;;;;;;;;;;4989442;28;20783;-64
2023/09/04 14:04:34;;;;;;;153.50;89.32;;;;;;;;;;4990374;28;20077;-64
2023/09/04 14:07:00;;;;;;;149.10;89.00;;;;;;;;;;4990830;28;20050;-64
2023/09/04 14:09:27;;;;;;;144.45;86.13;;;;;;;;;;4989739;28;20046;-64
2023/09/04 14:11:54;;;;;;;144.02;87.18;;;;;;;;;;4992477;28;20022;-66
2023/09/04 14:14:21;;;;;;;146.23;87.63;;;;;;;;;;4990866;28;20053;-62